Strona główna
METAR-TAF:

METAR-TAF

Lotnisko :

Port lotniczy Ipoh

Ipoh, Malezja

Szerokość geograficzna: 04-34-09N, Długość geograficzna: 101-05-35E, wysokość: 40 m

Aktualna obserwacja pogody

Raport powstał 1 godzina i 5 minut temu, godzina 04:00 UTC
Wiatr 3 kt z kierunków zmiennych
Temperatura 31°C
Wilgotność 59%
Ciśnienie 1011 hPa
Widzialność 10 km lub więcej
Mało chmury na wysokości 2000 ft

METAR: WMKI 070400Z VRB03KT 9999 FEW020 31/22 Q1011

czas: 13:05 (05:05 UTC)

Prognoza

Raport powstał 6 godziny i 5 minut temu, godzina 23:00 UTC
Prognoza ważna od 07 godzina 00 UTC do 08 godzina 00 UTC
Wiatr 8 kt od północno-północny wschód
Widzialność 10 km lub więcej
Mało chmury na wysokości 1700 ft, Cumulonimbus.

TAF: WMKI 062300Z 0700/0800 03008KT 9999 FEW017CB

Obserwacja i prognoza pogody dla ponad 4000 lotnisk (raport METAR i TAF).

Dostępne stacje oznaczono żółtymi i czerwonymi punktami na mapie.

Najedź kursorem aby zobaczyć nazwę stacji.

Kliknij aby zobaczyć obserwacje i prognozy pogody.

Aby zmienić mapę: kliknij na zielony przycisk z czarnym krzyżykiem, aby powiększyć; na zielony przycisk z myślnikiem, aby pomniejszyć; na zielone strzałki, aby przejść do map sąsiednich.


METAR-TAF: